Time;durP1;ratioP1;P1;durP2;ratioP2;P2;SDS_P1;SDS_P2;PMS_P1;PMS_P2;Temp;Humidity;BMP_temperature;BMP_pressure;BME280_temperature;BME280_humidity;BME280_pressure;Samples;Min_cycle;Max_cycle;Signal;HPM_P1;HPM_P2
2022/08/19 00:02:22;;;;;;;8.93;1.77;;;;;;;;;;5052776;28;20515;-61
2022/08/19 00:04:52;;;;;;;11.20;2.30;;;;;;;;;;5055126;28;20035;-62
2022/08/19 00:07:18;;;;;;;10.65;2.25;;;;;;;;;;5058675;28;20029;-61
2022/08/19 00:09:44;;;;;;;12.45;2.40;;;;;;;;;;5057596;28;20031;-62
2022/08/19 00:12:11;;;;;;;10.85;2.85;;;;;;;;;;5060860;28;20035;-63
2022/08/19 00:14:38;;;;;;;9.88;2.03;;;;;;;;;;5054747;28;20642;-62
2022/08/19 00:17:06;;;;;;;12.05;1.98;;;;;;;;;;5055182;28;20536;-62
2022/08/19 00:19:32;;;;;;;8.43;1.77;;;;;;;;;;5050993;28;20094;-61
2022/08/19 00:21:59;;;;;;;9.98;1.83;;;;;;;;;;5054296;28;20459;-61
2022/08/19 00:24:25;;;;;;;8.32;1.80;;;;;;;;;;5052484;28;20028;-62
2022/08/19 00:26:52;;;;;;;10.23;2.25;;;;;;;;;;5054845;28;20029;-62
2022/08/19 00:29:19;;;;;;;10.30;1.90;;;;;;;;;;5060014;28;20031;-62
2022/08/19 00:31:46;;;;;;;12.73;1.73;;;;;;;;;;5054638;28;20532;-62
2022/08/19 00:34:12;;;;;;;13.10;2.20;;;;;;;;;;5053486;28;21258;-62
2022/08/19 00:36:39;;;;;;;10.40;2.20;;;;;;;;;;5052444;28;20048;-62
2022/08/19 00:39:05;;;;;;;10.30;1.90;;;;;;;;;;5056934;28;20038;-61
2022/08/19 00:41:31;;;;;;;12.25;2.03;;;;;;;;;;5054881;28;20067;-62
2022/08/19 00:44:08;;;;;;;12.10;1.98;;;;;;;;;;5058035;28;20492;-61
2022/08/19 00:46:36;;;;;;;14.13;1.75;;;;;;;;;;5052665;28;20036;-62
2022/08/19 00:49:07;;;;;;;13.02;1.92;;;;;;;;;;5056565;28;20125;-64
2022/08/19 00:51:33;;;;;;;9.75;1.85;;;;;;;;;;5053944;28;20536;-64
2022/08/19 00:54:00;;;;;;;10.55;1.88;;;;;;;;;;5055389;28;20105;-64
2022/08/19 00:56:27;;;;;;;9.43;2.00;;;;;;;;;;5055564;28;20076;-64
2022/08/19 00:58:53;;;;;;;9.75;1.80;;;;;;;;;;5049806;28;20032;-66
2022/08/19 01:01:19;;;;;;;9.27;1.48;;;;;;;;;;5055647;28;20051;-64
2022/08/19 01:03:45;;;;;;;;;;;;;;;;;;5057741;28;20055;-69
2022/08/19 01:06:12;;;;;;;7.15;1.55;;;;;;;;;;5057355;28;20015;-65
2022/08/19 01:08:38;;;;;;;5.20;0.80;;;;;;;;;;5055347;28;20031;-65
2022/08/19 01:11:04;;;;;;;2.97;0.70;;;;;;;;;;5057143;28;20075;-65
2022/08/19 01:13:32;;;;;;;3.25;0.80;;;;;;;;;;5053103;28;20046;-67
2022/08/19 01:16:04;;;;;;;6.50;1.10;;;;;;;;;;5053053;28;20190;-66
2022/08/19 01:18:32;;;;;;;9.05;1.50;;;;;;;;;;5051395;28;20093;-67
2022/08/19 01:21:01;;;;;;;7.22;1.30;;;;;;;;;;5053598;28;20082;-66
2022/08/19 01:23:42;;;;;;;6.20;1.40;;;;;;;;;;5052398;28;20115;-67
2022/08/19 01:26:19;;;;;;;7.60;1.60;;;;;;;;;;5054349;28;20044;-66
2022/08/19 01:28:46;;;;;;;6.05;1.30;;;;;;;;;;5065052;28;20480;-66
2022/08/19 01:31:15;;;;;;;7.70;1.30;;;;;;;;;;5051008;28;20026;-66
2022/08/19 01:33:41;;;;;;;6.20;1.38;;;;;;;;;;5047310;28;20036;-66
2022/08/19 01:36:12;;;;;;;8.63;1.50;;;;;;;;;;5054799;28;20482;-67
2022/08/19 01:38:40;;;;;;;7.28;1.50;;;;;;;;;;5064531;28;20115;-66
2022/08/19 01:41:06;;;;;;;9.02;1.50;;;;;;;;;;5054007;28;21553;-66
2022/08/19 01:43:32;;;;;;;;;;;;;;;;;;5052480;28;20116;-66
2022/08/19 01:45:58;;;;;;;6.38;1.30;;;;;;;;;;5057953;28;20444;-66
2022/08/19 01:48:24;;;;;;;7.72;1.30;;;;;;;;;;5049194;28;20558;-66
2022/08/19 01:50:50;;;;;;;6.78;1.48;;;;;;;;;;5052720;28;20028;-66
2022/08/19 01:53:16;;;;;;;;;;;;;;;;;;5053335;28;20552;-66
2022/08/19 01:55:43;;;;;;;10.20;1.52;;;;;;;;;;5049739;28;19912;-67
2022/08/19 01:58:12;;;;;;;6.57;1.20;;;;;;;;;;5053960;28;20031;-67
2022/08/19 02:00:39;;;;;;;4.80;1.15;;;;;;;;;;5050870;28;20028;-66
2022/08/19 02:03:06;;;;;;;7.75;1.52;;;;;;;;;;5054628;28;20461;-66
2022/08/19 02:05:32;;;;;;;8.00;1.40;;;;;;;;;;5047472;28;20741;-66
2022/08/19 02:07:58;;;;;;;;;;;;;;;;;;5053620;28;20063;-66
2022/08/19 02:10:25;;;;;;;6.97;1.50;;;;;;;;;;5046299;28;19920;-67
2022/08/19 02:12:51;;;;;;;5.88;1.23;;;;;;;;;;5047212;28;20555;-66
2022/08/19 02:15:21;;;;;;;8.50;1.50;;;;;;;;;;5050967;28;20473;-66
2022/08/19 02:17:48;;;;;;;7.13;1.35;;;;;;;;;;5051732;28;20028;-66
2022/08/19 02:20:14;;;;;;;9.65;1.50;;;;;;;;;;5051792;28;20028;-66
2022/08/19 02:22:42;;;;;;;6.80;1.45;;;;;;;;;;5052795;28;20418;-67
2022/08/19 02:25:09;;;;;;;6.82;1.60;;;;;;;;;;5050726;28;20371;-66
2022/08/19 02:27:35;;;;;;;9.95;1.67;;;;;;;;;;5050759;28;20039;-66
2022/08/19 02:30:01;;;;;;;;;;;;;;;;;;5053784;28;20057;-66
2022/08/19 02:32:30;;;;;;;8.07;1.40;;;;;;;;;;5048629;28;20047;-66
2022/08/19 02:34:56;;;;;;;12.25;1.52;;;;;;;;;;5056796;28;20019;-66
2022/08/19 02:40:07;;;;;;;8.88;1.55;;;;;;;;;;5049552;28;19958;-66
2022/08/19 02:42:33;;;;;;;6.35;1.40;;;;;;;;;;5050015;28;20638;-65
2022/08/19 02:44:59;;;;;;;8.70;1.73;;;;;;;;;;5056645;28;20056;-65
2022/08/19 02:47:26;;;;;;;9.57;1.60;;;;;;;;;;5054490;28;20032;-66
2022/08/19 02:49:51;;;;;;;;;;;;;;;;;;5056969;28;20414;-65
2022/08/19 02:52:18;;;;;;;8.50;1.60;;;;;;;;;;5053561;28;20718;-65
2022/08/19 02:54:44;;;;;;;;;;;;;;;;;;5046033;28;20025;-66
2022/08/19 02:57:10;;;;;;;7.70;1.50;;;;;;;;;;5054628;28;20493;-65
2022/08/19 02:59:36;;;;;;;7.03;1.67;;;;;;;;;;5055157;28;20059;-65
2022/08/19 03:02:02;;;;;;;;;;;;;;;;;;5060782;28;20110;-65
2022/08/19 03:04:29;;;;;;;8.13;1.48;;;;;;;;;;5052571;28;19912;-65
2022/08/19 03:06:55;;;;;;;9.38;1.52;;;;;;;;;;5056834;28;20395;-65
2022/08/19 03:09:22;;;;;;;8.18;1.60;;;;;;;;;;5055072;28;20028;-67
2022/08/19 03:11:48;;;;;;;7.70;1.75;;;;;;;;;;5053899;28;20029;-65
2022/08/19 03:14:14;;;;;;;;;;;;;;;;;;5054031;28;20035;-65
2022/08/19 03:16:42;;;;;;;10.23;1.95;;;;;;;;;;5047806;28;19916;-65
2022/08/19 03:19:09;;;;;;;7.97;1.70;;;;;;;;;;5055246;28;20134;-65
2022/08/19 03:21:35;;;;;;;10.20;1.80;;;;;;;;;;5057144;28;20028;-66
2022/08/19 03:24:01;;;;;;;;;;;;;;;;;;5053264;28;20113;-66
2022/08/19 03:26:27;;;;;;;11.18;1.85;;;;;;;;;;5052798;28;19920;-66
2022/08/19 03:28:53;;;;;;;6.78;1.50;;;;;;;;;;5053443;28;20067;-67
2022/08/19 03:31:19;;;;;;;;;;;;;;;;;;5055069;28;20564;-66
2022/08/19 03:33:45;;;;;;;7.63;1.73;;;;;;;;;;5049229;28;20253;-66
2022/08/19 03:36:25;;;;;;;8.80;1.80;;;;;;;;;;5053694;28;20036;-66
2022/08/19 03:38:54;;;;;;;10.13;1.67;;;;;;;;;;5050511;28;20861;-66
2022/08/19 03:41:25;;;;;;;11.27;4.18;;;;;;;;;;5075350;28;20025;-66
2022/08/19 03:43:52;;;;;;;13.07;5.65;;;;;;;;;;5062580;28;20713;-66
2022/08/19 03:46:20;;;;;;;13.18;4.93;;;;;;;;;;5060233;28;20035;-66
2022/08/19 03:48:46;;;;;;;11.40;3.63;;;;;;;;;;5056136;28;20036;-67
2022/08/19 03:51:21;;;;;;;12.93;3.17;;;;;;;;;;5056692;28;20502;-66
2022/08/19 03:53:48;;;;;;;10.80;2.60;;;;;;;;;;5055919;28;20024;-66
2022/08/19 03:56:16;;;;;;;7.65;2.22;;;;;;;;;;5049170;28;20076;-66
2022/08/19 03:58:42;;;;;;;9.55;1.90;;;;;;;;;;5053052;28;20036;-66
2022/08/19 04:01:08;;;;;;;;;;;;;;;;;;5052317;28;20035;-66
2022/08/19 04:03:35;;;;;;;10.15;2.13;;;;;;;;;;5053951;28;19995;-66
2022/08/19 04:06:12;;;;;;;7.43;1.83;;;;;;;;;;5053562;28;20120;-67
2022/08/19 04:08:38;;;;;;;;;;;;;;;;;;5040449;28;20366;-67
2022/08/19 04:11:07;;;;;;;9.32;1.90;;;;;;;;;;5054557;28;20282;-66
2022/08/19 04:13:34;;;;;;;10.43;2.00;;;;;;;;;;5050584;28;20029;-66
2022/08/19 04:16:00;;;;;;;10.00;1.75;;;;;;;;;;5054955;28;20432;-66
2022/08/19 04:18:29;;;;;;;12.35;2.10;;;;;;;;;;5055755;28;20060;-66
2022/08/19 04:20:56;;;;;;;9.02;1.85;;;;;;;;;;5057336;28;20567;-66
2022/08/19 04:23:23;;;;;;;10.23;1.77;;;;;;;;;;5050009;28;20395;-66
2022/08/19 04:25:49;;;;;;;8.50;1.77;;;;;;;;;;5053952;28;20034;-66
2022/08/19 04:28:15;;;;;;;;;;;;;;;;;;5057375;28;20020;-66
2022/08/19 04:30:45;;;;;;;10.73;2.47;;;;;;;;;;5052361;28;20013;-66
2022/08/19 04:33:13;;;;;;;9.82;2.60;;;;;;;;;;5052724;28;20130;-66
2022/08/19 04:35:44;;;;;;;9.02;2.30;;;;;;;;;;5069689;28;20602;-66
2022/08/19 04:38:10;;;;;;;8.20;1.90;;;;;;;;;;5052062;28;20482;-67
2022/08/19 04:43:25;;;;;;;11.38;1.75;;;;;;;;;;5054195;28;20046;-66
2022/08/19 04:45:51;;;;;;;;;;;;;;;;;;5056329;28;20028;-66
2022/08/19 04:48:22;;;;;;;8.50;1.92;;;;;;;;;;5052782;28;19920;-67
2022/08/19 04:50:48;;;;;;;8.88;1.92;;;;;;;;;;5054143;28;20031;-66
2022/08/19 04:53:15;;;;;;;9.05;1.77;;;;;;;;;;5051792;28;20704;-66
2022/08/19 04:55:42;;;;;;;11.40;1.80;;;;;;;;;;5054006;28;20040;-66
2022/08/19 04:58:08;;;;;;;5.95;1.73;;;;;;;;;;5050131;28;20387;-66
2022/08/19 05:00:34;;;;;;;;;;;;;;;;;;5052353;28;20036;-66
2022/08/19 05:03:00;;;;;;;8.20;1.60;;;;;;;;;;5049954;28;19911;-66
2022/08/19 05:05:26;;;;;;;8.82;1.75;;;;;;;;;;5046781;28;20067;-67
2022/08/19 05:07:52;;;;;;;;;;;;;;;;;;5052806;28;20536;-66
2022/08/19 05:10:19;;;;;;;5.68;1.45;;;;;;;;;;5051620;28;19916;-66
2022/08/19 05:12:45;;;;;;;6.93;1.30;;;;;;;;;;5051067;28;20766;-66
2022/08/19 05:15:11;;;;;;;;;;;;;;;;;;5054438;28;20032;-66
2022/08/19 05:17:37;;;;;;;7.00;1.42;;;;;;;;;;5049280;28;19916;-66
2022/08/19 05:22:48;;;;;;;6.80;1.60;;;;;;;;;;5049575;28;19920;-66
2022/08/19 05:25:14;;;;;;;;;;;;;;;;;;5051284;28;20699;-66
2022/08/19 05:27:41;;;;;;;9.00;1.77;;;;;;;;;;5047439;28;20214;-66
2022/08/19 05:30:07;;;;;;;8.40;1.83;;;;;;;;;;5045301;28;20020;-68
2022/08/19 05:32:33;;;;;;;6.95;1.70;;;;;;;;;;5048375;28;20256;-66
2022/08/19 05:35:00;;;;;;;4.80;1.35;;;;;;;;;;5063606;28;20036;-66
2022/08/19 05:37:27;;;;;;;10.93;1.58;;;;;;;;;;5048385;28;20026;-66
2022/08/19 05:39:54;;;;;;;8.63;1.63;;;;;;;;;;5045405;28;20115;-66
2022/08/19 05:42:21;;;;;;;5.18;1.48;;;;;;;;;;5050055;28;20024;-66
2022/08/19 05:44:48;;;;;;;8.20;1.60;;;;;;;;;;5048547;28;20445;-67
2022/08/19 05:47:15;;;;;;;6.70;1.40;;;;;;;;;;5047347;28;20028;-66
2022/08/19 05:49:42;;;;;;;6.70;1.55;;;;;;;;;;5043479;28;20211;-66
2022/08/19 05:52:10;;;;;;;7.75;1.60;;;;;;;;;;5045241;28;20380;-66
2022/08/19 05:54:40;;;;;;;7.32;1.48;;;;;;;;;;5043207;28;20035;-66
2022/08/19 05:57:06;;;;;;;8.68;1.40;;;;;;;;;;5047031;28;20073;-66
2022/08/19 05:59:34;;;;;;;8.48;1.35;;;;;;;;;;5045435;28;20878;-66
2022/08/19 06:02:00;;;;;;;4.78;1.30;;;;;;;;;;5050655;28;20467;-66
2022/08/19 06:04:26;;;;;;;4.40;1.25;;;;;;;;;;5049672;28;20029;-66
2022/08/19 06:06:52;;;;;;;;;;;;;;;;;;5051142;28;20029;-66
2022/08/19 06:09:19;;;;;;;8.63;1.33;;;;;;;;;;5052209;28;19912;-66
2022/08/19 06:11:49;;;;;;;6.75;1.40;;;;;;;;;;5048657;28;20491;-66
2022/08/19 06:14:20;;;;;;;8.77;1.60;;;;;;;;;;5050793;28;20081;-66
2022/08/19 06:16:47;;;;;;;8.55;1.58;;;;;;;;;;5048407;28;20461;-66
2022/08/19 06:19:16;;;;;;;5.88;1.40;;;;;;;;;;5049320;28;20032;-67
2022/08/19 06:21:44;;;;;;;9.13;1.60;;;;;;;;;;5047505;28;20055;-66
2022/08/19 06:24:11;;;;;;;5.78;1.42;;;;;;;;;;5050482;28;20419;-66
2022/08/19 06:26:38;;;;;;;8.10;1.42;;;;;;;;;;5045596;28;20439;-66
2022/08/19 06:29:06;;;;;;;7.63;1.50;;;;;;;;;;5050261;28;20133;-66
2022/08/19 06:31:33;;;;;;;10.60;1.80;;;;;;;;;;5047224;28;20020;-66
2022/08/19 06:34:02;;;;;;;10.57;1.80;;;;;;;;;;5050398;28;20431;-66
2022/08/19 06:36:31;;;;;;;8.95;1.48;;;;;;;;;;5048582;28;20035;-66
2022/08/19 06:38:58;;;;;;;7.55;1.52;;;;;;;;;;5051155;28;20042;-66
2022/08/19 06:41:25;;;;;;;11.20;1.67;;;;;;;;;;5048981;28;20129;-66
2022/08/19 06:43:51;;;;;;;11.23;1.38;;;;;;;;;;5047045;28;20077;-66
2022/08/19 06:46:19;;;;;;;4.72;1.27;;;;;;;;;;5050436;28;20028;-65
2022/08/19 06:48:45;;;;;;;6.22;1.35;;;;;;;;;;5045196;28;20040;-66
2022/08/19 06:51:12;;;;;;;7.97;1.60;;;;;;;;;;5047953;28;20090;-65
2022/08/19 06:53:39;;;;;;;10.40;1.70;;;;;;;;;;5041989;28;20017;-65
2022/08/19 06:56:05;;;;;;;8.57;1.58;;;;;;;;;;5048471;28;20060;-65
2022/08/19 06:58:31;;;;;;;9.85;1.40;;;;;;;;;;5045173;28;20036;-65
2022/08/19 07:01:04;;;;;;;11.23;1.80;;;;;;;;;;5050482;28;20036;-65
2022/08/19 07:03:32;;;;;;;7.25;1.45;;;;;;;;;;5051350;28;20506;-66
2022/08/19 07:06:03;;;;;;;7.68;1.58;;;;;;;;;;5054242;28;20060;-65
2022/08/19 07:08:29;;;;;;;7.68;1.40;;;;;;;;;;5045314;28;20029;-66
2022/08/19 07:10:55;;;;;;;8.57;1.70;;;;;;;;;;5052269;28;20082;-66
2022/08/19 07:13:21;;;;;;;6.57;1.52;;;;;;;;;;5052351;28;20032;-66
2022/08/19 07:15:49;;;;;;;7.03;1.50;;;;;;;;;;5056955;28;20035;-67
2022/08/19 07:18:15;;;;;;;7.22;1.50;;;;;;;;;;5049789;28;20349;-66
2022/08/19 07:20:42;;;;;;;7.93;1.50;;;;;;;;;;5045485;28;20932;-67
2022/08/19 07:23:09;;;;;;;8.82;1.83;;;;;;;;;;5044578;28;20116;-67
2022/08/19 07:25:36;;;;;;;10.10;1.95;;;;;;;;;;5045466;28;20045;-66
2022/08/19 07:28:03;;;;;;;8.38;1.70;;;;;;;;;;5052798;28;20024;-66
2022/08/19 07:30:29;;;;;;;8.18;1.83;;;;;;;;;;5043143;28;21216;-66
2022/08/19 07:32:56;;;;;;;18.25;2.28;;;;;;;;;;5053741;28;20216;-67
2022/08/19 07:35:23;;;;;;;9.70;2.45;;;;;;;;;;5051629;28;20124;-66
2022/08/19 07:37:49;;;;;;;9.90;2.30;;;;;;;;;;5054240;28;20028;-66
2022/08/19 07:40:16;;;;;;;10.15;2.83;;;;;;;;;;5052180;28;20113;-66
2022/08/19 07:42:43;;;;;;;11.50;3.00;;;;;;;;;;5048174;28;20037;-66
2022/08/19 07:45:10;;;;;;;8.52;2.35;;;;;;;;;;5050807;28;20041;-67
2022/08/19 07:47:36;;;;;;;11.32;2.40;;;;;;;;;;5045947;28;20039;-67
2022/08/19 07:50:04;;;;;;;9.50;2.17;;;;;;;;;;5050072;28;20056;-66
2022/08/19 07:52:30;;;;;;;7.85;1.60;;;;;;;;;;5048705;28;20110;-67
2022/08/19 07:54:57;;;;;;;10.20;1.65;;;;;;;;;;5054180;28;20024;-66
2022/08/19 07:57:23;;;;;;;7.50;1.40;;;;;;;;;;5050625;28;20032;-66
2022/08/19 07:59:49;;;;;;;7.50;1.52;;;;;;;;;;5053923;28;20024;-65
2022/08/19 08:02:15;;;;;;;9.05;1.50;;;;;;;;;;5053821;28;20040;-65
2022/08/19 08:10:11;;;;;;;10.05;2.25;;;;;;;;;;5052374;28;20083;-67
2022/08/19 08:12:41;;;;;;;6.65;1.35;;;;;;;;;;5051093;28;20060;-65
2022/08/19 08:15:12;;;;;;;6.93;1.60;;;;;;;;;;5051516;28;20115;-65
2022/08/19 08:17:39;;;;;;;9.20;1.50;;;;;;;;;;5049933;28;20550;-65
2022/08/19 08:20:06;;;;;;;5.35;1.38;;;;;;;;;;5048059;28;20032;-65
2022/08/19 08:25:19;;;;;;;10.43;1.30;;;;;;;;;;5053481;28;20078;-65
2022/08/19 08:27:46;;;;;;;8.85;1.50;;;;;;;;;;5063595;28;20471;-66
2022/08/19 08:30:14;;;;;;;8.68;1.90;;;;;;;;;;5055341;28;20024;-66
2022/08/19 08:32:41;;;;;;;7.65;1.50;;;;;;;;;;5043452;28;20079;-67
2022/08/19 08:35:08;;;;;;;6.05;1.25;;;;;;;;;;5049718;28;20151;-66
2022/08/19 08:37:35;;;;;;;6.82;1.45;;;;;;;;;;5047538;28;20033;-67
2022/08/19 08:40:07;;;;;;;5.82;1.17;;;;;;;;;;5046776;28;20402;-66
2022/08/19 08:42:36;;;;;;;7.07;1.30;;;;;;;;;;5047178;28;20163;-66
2022/08/19 08:45:15;;;;;;;7.88;1.38;;;;;;;;;;5053736;28;20032;-66
2022/08/19 08:47:43;;;;;;;6.82;1.27;;;;;;;;;;5055791;28;21935;-66
2022/08/19 08:50:19;;;;;;;6.80;1.38;;;;;;;;;;5054282;28;20036;-66
2022/08/19 08:52:47;;;;;;;9.10;1.42;;;;;;;;;;5050894;28;20037;-66
2022/08/19 08:55:19;;;;;;;7.65;1.40;;;;;;;;;;5051726;28;20029;-66
2022/08/19 08:57:54;;;;;;;8.40;1.50;;;;;;;;;;5050375;28;20485;-65
2022/08/19 09:00:20;;;;;;;8.05;1.45;;;;;;;;;;5050537;28;20470;-66
2022/08/19 09:02:46;;;;;;;7.47;1.90;;;;;;;;;;5047391;28;20027;-65
2022/08/19 09:05:13;;;;;;;8.10;1.20;;;;;;;;;;5051427;28;20072;-65
2022/08/19 09:07:47;;;;;;;8.55;1.20;;;;;;;;;;5048106;28;20036;-65
2022/08/19 09:10:16;;;;;;;7.88;1.20;;;;;;;;;;5047098;28;20028;-65
2022/08/19 09:12:59;;;;;;;4.93;1.10;;;;;;;;;;5049827;28;20531;-65
2022/08/19 09:15:30;;;;;;;6.47;1.10;;;;;;;;;;5042742;28;20036;-67
2022/08/19 09:18:01;;;;;;;5.43;1.00;;;;;;;;;;5047963;28;20474;-65
2022/08/19 09:20:27;;;;;;;4.25;0.90;;;;;;;;;;5062183;28;20115;-65
2022/08/19 09:22:53;;;;;;;7.55;0.80;;;;;;;;;;5049718;28;20160;-65
2022/08/19 09:25:22;;;;;;;6.47;1.00;;;;;;;;;;5051994;28;20033;-65
2022/08/19 09:27:49;;;;;;;5.07;1.10;;;;;;;;;;5046734;28;20556;-66
2022/08/19 09:30:17;;;;;;;6.57;0.98;;;;;;;;;;5046782;28;20097;-66
2022/08/19 09:32:43;;;;;;;4.60;0.95;;;;;;;;;;5044468;28;20532;-66
2022/08/19 09:35:09;;;;;;;8.82;1.10;;;;;;;;;;5050403;28;20368;-66
2022/08/19 09:37:36;;;;;;;8.27;1.23;;;;;;;;;;5042772;28;20035;-66
2022/08/19 09:40:03;;;;;;;6.10;1.10;;;;;;;;;;5046014;28;20028;-66
2022/08/19 09:42:29;;;;;;;4.72;0.90;;;;;;;;;;5044689;28;20048;-65
2022/08/19 09:44:55;;;;;;;5.97;1.25;;;;;;;;;;5048852;28;20076;-65
2022/08/19 09:47:21;;;;;;;5.07;1.05;;;;;;;;;;5047889;28;20463;-65
2022/08/19 09:49:48;;;;;;;5.00;1.05;;;;;;;;;;5050305;28;20028;-67
2022/08/19 09:52:15;;;;;;;4.68;1.13;;;;;;;;;;5048617;28;20044;-66
2022/08/19 09:54:42;;;;;;;5.25;1.10;;;;;;;;;;5046529;28;20024;-66
2022/08/19 09:57:08;;;;;;;7.85;1.05;;;;;;;;;;5048812;28;20113;-67
2022/08/19 09:59:34;;;;;;;3.55;1.00;;;;;;;;;;5045437;28;20504;-66
2022/08/19 10:02:01;;;;;;;3.53;0.90;;;;;;;;;;5047862;28;20029;-66
2022/08/19 10:05:47;;;;;;;10.32;1.13;;;;;;;;;;5046208;28;20047;-66
2022/08/19 10:07:13;;;;;;;6.00;0.85;;;;;;;;;;5055448;28;20071;-67
2022/08/19 10:09:40;;;;;;;4.78;1.23;;;;;;;;;;5048385;28;20091;-65
2022/08/19 10:12:07;;;;;;;6.28;1.20;;;;;;;;;;5052794;28;20089;-65
2022/08/19 10:14:33;;;;;;;7.35;1.27;;;;;;;;;;5046222;28;20025;-65
2022/08/19 10:17:00;;;;;;;6.50;1.20;;;;;;;;;;5054764;28;20086;-69
2022/08/19 10:19:29;;;;;;;4.97;1.00;;;;;;;;;;5044927;28;20609;-66
2022/08/19 10:21:55;;;;;;;6.28;1.23;;;;;;;;;;5050650;28;20113;-66
2022/08/19 10:24:24;;;;;;;4.53;1.15;;;;;;;;;;5048923;28;20115;-65
2022/08/19 10:26:50;;;;;;;5.18;1.10;;;;;;;;;;5052547;28;20040;-66
2022/08/19 10:29:16;;;;;;;4.97;1.00;;;;;;;;;;5046465;28;20396;-66
2022/08/19 10:31:42;;;;;;;5.70;1.20;;;;;;;;;;5044041;28;20358;-65
2022/08/19 10:34:09;;;;;;;5.78;0.95;;;;;;;;;;5049080;28;20063;-66
2022/08/19 10:36:36;;;;;;;5.00;0.90;;;;;;;;;;5045921;28;20436;-66
2022/08/19 10:39:12;;;;;;;9.32;1.13;;;;;;;;;;5046001;28;20114;-65
2022/08/19 10:41:39;;;;;;;4.70;0.82;;;;;;;;;;5047606;28;20039;-65
2022/08/19 10:44:09;;;;;;;7.00;1.00;;;;;;;;;;5047790;28;20025;-65
2022/08/19 10:46:41;;;;;;;7.88;1.10;;;;;;;;;;5046348;28;20063;-66
2022/08/19 10:49:08;;;;;;;6.28;1.05;;;;;;;;;;5068772;28;20376;-65
2022/08/19 10:54:20;;;;;;;6.93;1.13;;;;;;;;;;5051717;28;20994;-66
2022/08/19 10:56:52;;;;;;;6.53;0.95;;;;;;;;;;5064399;28;20468;-66
2022/08/19 10:59:20;;;;;;;5.57;1.05;;;;;;;;;;5054861;28;20028;-66
2022/08/19 11:01:46;;;;;;;5.25;1.00;;;;;;;;;;5052771;28;20036;-65
2022/08/19 11:04:13;;;;;;;5.38;0.93;;;;;;;;;;5054511;28;20459;-65
2022/08/19 11:06:41;;;;;;;4.72;0.80;;;;;;;;;;5049997;28;20028;-65
2022/08/19 11:09:07;;;;;;;3.95;0.90;;;;;;;;;;5057800;28;20502;-66
2022/08/19 11:11:39;;;;;;;3.67;0.80;;;;;;;;;;5052294;28;20081;-65
2022/08/19 11:14:06;;;;;;;2.90;0.77;;;;;;;;;;5050353;28;20052;-65
2022/08/19 11:16:32;;;;;;;3.95;0.80;;;;;;;;;;5043871;28;20401;-65
2022/08/19 11:18:59;;;;;;;6.43;0.93;;;;;;;;;;5053104;28;20028;-66
2022/08/19 11:21:27;;;;;;;5.05;1.02;;;;;;;;;;5046824;28;20032;-65
2022/08/19 11:23:55;;;;;;;3.90;0.82;;;;;;;;;;5051904;28;20033;-66
2022/08/19 11:26:22;;;;;;;7.13;1.10;;;;;;;;;;5052180;28;20501;-66
2022/08/19 11:28:50;;;;;;;5.50;0.80;;;;;;;;;;5049834;28;20027;-66
2022/08/19 11:31:19;;;;;;;5.28;1.10;;;;;;;;;;5054174;28;20517;-66
2022/08/19 11:33:45;;;;;;;4.10;0.90;;;;;;;;;;5051608;28;20029;-64
2022/08/19 11:36:12;;;;;;;4.00;0.80;;;;;;;;;;5047289;28;20060;-66
2022/08/19 11:38:38;;;;;;;3.55;0.90;;;;;;;;;;5049854;28;20041;-66
2022/08/19 11:41:07;;;;;;;6.05;1.00;;;;;;;;;;5055109;28;20489;-66
2022/08/19 11:43:33;;;;;;;4.65;0.90;;;;;;;;;;5047584;28;20107;-66
2022/08/19 11:46:00;;;;;;;5.78;0.95;;;;;;;;;;5048612;28;20056;-67
2022/08/19 11:48:26;;;;;;;4.97;1.20;;;;;;;;;;5044821;28;20032;-66
2022/08/19 11:50:56;;;;;;;7.03;1.48;;;;;;;;;;5049668;28;20199;-66
2022/08/19 11:53:23;;;;;;;4.10;1.20;;;;;;;;;;5051965;28;20028;-66
2022/08/19 11:55:50;;;;;;;4.47;0.80;;;;;;;;;;5050335;28;20036;-66
2022/08/19 11:58:17;;;;;;;4.88;1.40;;;;;;;;;;5051700;28;20043;-66
2022/08/19 12:00:45;;;;;;;8.77;3.60;;;;;;;;;;5052353;28;20454;-67
2022/08/19 12:03:11;;;;;;;5.93;1.50;;;;;;;;;;5054441;28;20367;-66
2022/08/19 12:05:38;;;;;;;5.47;1.15;;;;;;;;;;5051040;28;20035;-65
2022/08/19 12:08:04;;;;;;;5.05;1.10;;;;;;;;;;5057332;28;20071;-65
2022/08/19 12:10:30;;;;;;;7.18;1.98;;;;;;;;;;5052296;28;20058;-64
2022/08/19 12:12:56;;;;;;;6.22;1.38;;;;;;;;;;5049844;28;20468;-67
2022/08/19 12:15:23;;;;;;;3.70;0.98;;;;;;;;;;5047217;28;20135;-67
2022/08/19 12:17:49;;;;;;;4.30;0.65;;;;;;;;;;5048422;28;20037;-67
2022/08/19 12:20:16;;;;;;;4.53;0.88;;;;;;;;;;5055461;28;20054;-66
2022/08/19 12:22:43;;;;;;;4.25;0.85;;;;;;;;;;5053315;28;20132;-67
2022/08/19 12:25:10;;;;;;;4.28;0.90;;;;;;;;;;5050682;28;20032;-67
2022/08/19 12:27:36;;;;;;;4.57;0.90;;;;;;;;;;5050908;28;20043;-67
2022/08/19 12:30:03;;;;;;;6.10;0.80;;;;;;;;;;5053285;28;20019;-67
2022/08/19 12:32:30;;;;;;;3.67;0.70;;;;;;;;;;5054126;28;20099;-67
2022/08/19 12:34:56;;;;;;;8.57;1.10;;;;;;;;;;5052353;28;20025;-67
2022/08/19 12:37:22;;;;;;;8.30;1.15;;;;;;;;;;5053013;28;20473;-67
2022/08/19 12:39:48;;;;;;;6.80;1.25;;;;;;;;;;5054280;28;20366;-66
2022/08/19 12:42:15;;;;;;;5.70;1.40;;;;;;;;;;5055269;28;20063;-66
2022/08/19 12:44:42;;;;;;;5.10;1.10;;;;;;;;;;5044270;28;20031;-67
2022/08/19 12:47:10;;;;;;;4.65;0.93;;;;;;;;;;5049559;28;20464;-66
2022/08/19 12:49:36;;;;;;;6.00;0.90;;;;;;;;;;5049573;28;20074;-66
2022/08/19 12:52:07;;;;;;;4.88;0.88;;;;;;;;;;5058232;28;20052;-67
2022/08/19 12:54:33;;;;;;;5.00;0.82;;;;;;;;;;5052500;28;20348;-67
2022/08/19 12:56:59;;;;;;;2.83;0.60;;;;;;;;;;5056460;28;20417;-66
2022/08/19 12:59:26;;;;;;;6.22;0.77;;;;;;;;;;5049981;28;20028;-66
2022/08/19 13:01:52;;;;;;;3.75;0.70;;;;;;;;;;5057694;28;20381;-66
2022/08/19 13:04:18;;;;;;;5.75;0.90;;;;;;;;;;5057840;28;20390;-66
2022/08/19 13:06:44;;;;;;;7.57;0.82;;;;;;;;;;5047908;28;20060;-66
2022/08/19 13:09:11;;;;;;;2.95;0.45;;;;;;;;;;5057616;28;20029;-67
2022/08/19 13:11:37;;;;;;;3.50;0.70;;;;;;;;;;5056576;28;20359;-66
2022/08/19 13:14:04;;;;;;;4.43;0.60;;;;;;;;;;5050995;28;20543;-66
2022/08/19 13:16:30;;;;;;;6.50;0.77;;;;;;;;;;5057481;28;20028;-67
2022/08/19 13:18:57;;;;;;;4.13;0.50;;;;;;;;;;5055879;28;20363;-67
2022/08/19 13:21:27;;;;;;;4.72;0.70;;;;;;;;;;5054939;28;20039;-65
2022/08/19 13:23:54;;;;;;;4.90;0.85;;;;;;;;;;5057388;28;20449;-67
2022/08/19 13:26:20;;;;;;;2.78;0.60;;;;;;;;;;5058264;28;20119;-64
2022/08/19 13:34:19;;;;;;;3.20;0.70;;;;;;;;;;5058545;28;20121;-66
2022/08/19 13:36:45;;;;;;;2.47;0.45;;;;;;;;;;5048935;28;20035;-66
2022/08/19 13:39:12;;;;;;;3.13;0.70;;;;;;;;;;5057866;28;20039;-67
2022/08/19 13:41:45;;;;;;;4.47;0.65;;;;;;;;;;5055030;28;20024;-67
2022/08/19 13:44:11;;;;;;;2.85;0.57;;;;;;;;;;5056948;28;20665;-67
2022/08/19 13:46:37;;;;;;;4.15;0.60;;;;;;;;;;5048160;28;20028;-67
2022/08/19 13:49:04;;;;;;;5.10;1.13;;;;;;;;;;5054110;28;20097;-67
2022/08/19 13:51:30;;;;;;;4.07;0.70;;;;;;;;;;5055019;28;20568;-67
2022/08/19 13:53:56;;;;;;;5.40;0.93;;;;;;;;;;5054253;28;20037;-66
2022/08/19 13:56:22;;;;;;;4.72;0.63;;;;;;;;;;5057122;28;20037;-67
2022/08/19 13:58:48;;;;;;;5.30;0.80;;;;;;;;;;5072904;28;20414;-68
2022/08/19 14:01:19;;;;;;;4.78;0.80;;;;;;;;;;5057732;28;20032;-66
2022/08/19 14:03:45;;;;;;;5.60;0.73;;;;;;;;;;5054967;28;20445;-66
2022/08/19 14:06:11;;;;;;;4.32;0.70;;;;;;;;;;5054385;28;20442;-66
2022/08/19 14:08:39;;;;;;;6.05;0.80;;;;;;;;;;5054652;28;20200;-66
2022/08/19 14:11:05;;;;;;;2.97;0.60;;;;;;;;;;5056119;28;20034;-66
2022/08/19 14:13:33;;;;;;;5.38;0.70;;;;;;;;;;5054640;28;20028;-66
2022/08/19 14:15:59;;;;;;;3.33;0.85;;;;;;;;;;5059876;28;20033;-66
2022/08/19 14:18:25;;;;;;;3.58;0.80;;;;;;;;;;5056379;28;20047;-65
2022/08/19 14:20:52;;;;;;;3.67;1.15;;;;;;;;;;5061176;28;20103;-66
2022/08/19 14:23:19;;;;;;;8.10;1.50;;;;;;;;;;5055329;28;20040;-66
2022/08/19 14:25:46;;;;;;;7.55;1.80;;;;;;;;;;5053195;28;20032;-66
2022/08/19 14:28:12;;;;;;;4.78;1.30;;;;;;;;;;5056668;28;20479;-66
2022/08/19 14:30:38;;;;;;;7.35;1.70;;;;;;;;;;5054737;28;20043;-65
2022/08/19 14:33:05;;;;;;;5.53;1.80;;;;;;;;;;5057466;28;20033;-67
2022/08/19 14:35:35;;;;;;;4.68;1.40;;;;;;;;;;5051361;28;20409;-65
2022/08/19 14:38:03;;;;;;;5.97;1.55;;;;;;;;;;5050300;28;20024;-66
2022/08/19 14:40:30;;;;;;;6.07;1.40;;;;;;;;;;5053455;28;20085;-66
2022/08/19 14:42:59;;;;;;;6.10;1.48;;;;;;;;;;5064037;28;20032;-65
2022/08/19 14:45:26;;;;;;;8.15;1.67;;;;;;;;;;5052895;28;20135;-65
2022/08/19 14:47:52;;;;;;;4.10;1.02;;;;;;;;;;5058529;28;20036;-66
2022/08/19 14:50:19;;;;;;;4.35;1.10;;;;;;;;;;5058479;28;20083;-65
2022/08/19 14:52:49;;;;;;;6.18;0.93;;;;;;;;;;5050431;28;20410;-66
2022/08/19 14:55:18;;;;;;;7.82;1.23;;;;;;;;;;5062551;28;20292;-65
2022/08/19 14:57:44;;;;;;;4.68;1.10;;;;;;;;;;5056965;28;20025;-65
2022/08/19 15:00:12;;;;;;;6.80;1.20;;;;;;;;;;5059815;28;20028;-65
2022/08/19 15:02:39;;;;;;;5.57;1.10;;;;;;;;;;5055385;28;20032;-66
2022/08/19 15:05:05;;;;;;;7.07;2.08;;;;;;;;;;5056020;28;20032;-65
2022/08/19 15:07:31;;;;;;;5.95;1.30;;;;;;;;;;5056856;28;20035;-65
2022/08/19 15:09:58;;;;;;;5.65;1.08;;;;;;;;;;5059151;28;20271;-65
2022/08/19 15:12:24;;;;;;;7.43;1.45;;;;;;;;;;5056867;28;20028;-65
2022/08/19 15:14:50;;;;;;;5.22;1.20;;;;;;;;;;5057608;28;20908;-65